Time;durP1;ratioP1;P1;durP2;ratioP2;P2;SDS_P1;SDS_P2;PMS_P1;PMS_P2;Temp;Humidity;BMP_temperature;BMP_pressure;BME280_temperature;BME280_humidity;BME280_pressure;Samples;Min_cycle;Max_cycle;Signal;HPM_P1;HPM_P2
2023/07/15 00:00:54;;;;;;;5.45;1.77;;;;;;;-145.69;44.87;51652.31;5072290;28;20206;-82
2023/07/15 00:03:21;;;;;;;3.13;1.77;;;;;;;-145.69;45.61;51652.31;5072478;28;20202;-86
2023/07/15 00:05:49;;;;;;;2.78;1.70;;;;;;;-145.69;46.19;51689.94;5079223;28;20237;-83
2023/07/15 00:08:16;;;;;;;7.13;1.85;;;;;;;-145.69;44.99;51652.31;5092615;28;20243;-84
2023/07/15 00:10:46;;;;;;;2.38;1.88;;;;;;;-145.69;44.97;51660.22;5092320;28;20221;-82
2023/07/15 00:13:13;;;;;;;2.50;1.73;;;;;;;-145.69;45.34;51664.19;5094739;28;20226;-82
2023/07/15 00:15:40;;;;;;;2.75;1.67;;;;;;;-145.69;45.63;51662.22;5095822;28;20285;-83
2023/07/15 00:18:09;;;;;;;9.18;1.73;;;;;;;-145.69;44.78;51662.22;5096353;28;20210;-83
2023/07/15 00:20:36;;;;;;;2.95;1.65;;;;;;;-145.69;44.89;51658.25;5096719;28;20213;-82
2023/07/15 00:23:02;;;;;;;4.53;2.00;;;;;;;-145.69;44.37;51646.38;5096349;28;20259;-83
2023/07/15 00:25:31;;;;;;;3.50;2.03;;;;;;;-145.69;44.55;51656.25;5096157;28;20233;-83
2023/07/15 00:27:57;;;;;;;5.50;1.80;;;;;;;-145.69;44.46;51666.16;5096314;28;20233;-83
2023/07/15 00:30:24;;;;;;;3.85;1.75;;;;;;;-145.69;45.57;51666.16;5095988;28;20209;-83
2023/07/15 00:32:51;;;;;;;2.35;1.48;;;;;;;-145.69;45.84;51656.25;5096040;28;20215;-82
2023/07/15 00:35:22;;;;;;;1.95;1.45;;;;;;;-145.69;45.16;51666.16;5095861;28;20634;-82
2023/07/15 00:37:49;;;;;;;5.80;1.70;;;;;;;-145.69;45.51;51683.97;5096014;28;20587;-81
2023/07/15 00:40:17;;;;;;;2.42;1.35;;;;;;;-145.69;45.36;51683.97;5095677;28;20198;-82
2023/07/15 00:43:21;;;;;;;2.90;1.70;;;;;;;-145.69;44.61;51666.16;5095426;28;20205;-83
2023/07/15 00:46:31;;;;;;;1.80;1.13;;;;;;;-145.69;45.32;51672.09;5095281;28;20217;-83
2023/07/15 00:49:01;;;;;;;1.42;1.33;;;;;;;-145.69;46.00;51680.03;5095880;28;20194;-83
2023/07/15 00:51:28;;;;;;;1.73;1.27;;;;;;;-145.69;45.71;51678.03;5095167;28;20227;-83
2023/07/15 00:53:55;;;;;;;2.35;1.48;;;;;;;-145.69;45.37;51697.84;5095695;28;20203;-84
2023/07/15 00:56:22;;;;;;;1.73;1.42;;;;;;;-145.69;45.45;51697.84;5095096;28;20232;-83
2023/07/15 00:58:50;;;;;;;3.20;1.52;;;;;;;-145.69;45.89;51699.81;5095325;28;20627;-82
2023/07/15 01:01:18;;;;;;;2.72;1.35;;;;;;;-145.69;45.21;51670.13;5095493;28;20244;-82
2023/07/15 01:03:45;;;;;;;2.22;1.75;;;;;;;-145.69;48.31;51689.94;5095064;28;20534;-85
2023/07/15 01:06:12;;;;;;;3.35;1.20;;;;;;;-145.69;50.75;51699.81;5095302;28;20194;-82
2023/07/15 01:08:39;;;;;;;2.13;1.20;;;;;;;-145.69;50.77;51715.66;5095456;28;20202;-82
2023/07/15 01:11:07;;;;;;;2.67;1.40;;;;;;;-145.69;51.93;51683.97;5094089;28;20266;-83
2023/07/15 01:13:33;;;;;;;7.82;2.58;;;;;;;-145.69;52.64;51691.91;5095034;28;20260;-83
2023/07/15 01:16:00;;;;;;;6.30;1.67;;;;;;;-145.69;54.40;51727.53;5094054;28;20205;-84
2023/07/15 01:18:28;;;;;;;2.13;1.50;;;;;;;-145.69;54.05;51703.78;5093453;28;20196;-83
2023/07/15 01:20:58;;;;;;;2.70;1.52;;;;;;;-145.69;50.87;51731.50;5074667;28;20217;-83
2023/07/15 01:23:25;;;;;;;1.95;1.63;;;;;;;-145.69;49.10;51719.63;5074256;28;20684;-82
2023/07/15 01:25:52;;;;;;;2.70;1.40;;;;;;;-145.69;48.90;51719.63;5085837;28;20594;-82
2023/07/15 01:28:18;;;;;;;2.47;1.40;;;;;;;-145.69;48.60;51709.72;5094904;28;20202;-82
2023/07/15 01:30:45;;;;;;;2.20;1.52;;;;;;;-145.69;48.85;51691.91;5094518;28;20557;-82
2023/07/15 01:33:15;;;;;;;1.92;1.45;;;;;;;-145.69;49.20;51680.03;5094797;28;20197;-82
2023/07/15 01:35:42;;;;;;;4.85;1.70;;;;;;;-145.69;50.70;51703.78;5094652;28;20240;-82
2023/07/15 01:38:09;;;;;;;3.08;1.30;;;;;;;-145.69;49.60;51715.66;5094811;28;20198;-82
2023/07/15 01:40:37;;;;;;;2.28;1.33;;;;;;;-145.69;49.06;51719.63;5094464;28;20229;-82
2023/07/15 01:43:04;;;;;;;2.25;1.48;;;;;;;-145.69;49.06;51723.59;5094674;28;20198;-83
2023/07/15 01:45:33;;;;;;;4.13;1.77;;;;;;;-145.69;49.52;51699.81;5094047;28;20225;-83
2023/07/15 01:47:59;;;;;;;3.92;1.60;;;;;;;-145.69;49.33;51711.72;5094097;28;20232;-82
2023/07/15 01:50:26;;;;;;;4.10;1.77;;;;;;;-145.69;49.35;51713.69;5094606;28;20198;-82
2023/07/15 01:52:52;;;;;;;2.47;1.55;;;;;;;-145.69;48.87;51695.88;5094638;28;20209;-84
2023/07/15 01:55:19;;;;;;;1.70;1.60;;;;;;;-145.69;48.71;51719.63;5094433;28;20556;-84
2023/07/15 01:57:47;;;;;;;2.15;1.50;;;;;;;-145.69;48.19;51701.81;5094262;28;20209;-84
2023/07/15 02:00:16;;;;;;;5.30;1.75;;;;;;;-145.69;48.21;51687.94;5094327;28;20190;-83
2023/07/15 02:02:43;;;;;;;2.88;1.40;;;;;;;-145.69;48.95;51711.72;5094414;28;20198;-83
2023/07/15 02:05:09;;;;;;;5.97;1.88;;;;;;;-145.69;49.16;51713.69;5094212;28;20312;-84
2023/07/15 02:07:36;;;;;;;2.47;1.50;;;;;;;-145.69;49.01;51707.75;5094243;28;20205;-82
2023/07/15 02:10:02;;;;;;;2.67;2.00;;;;;;;-145.69;49.15;51741.41;5094252;28;20205;-82
2023/07/15 02:12:29;;;;;;;2.65;1.60;;;;;;;-145.69;49.62;51711.72;5093967;28;20225;-84
2023/07/15 02:14:57;;;;;;;3.03;1.52;;;;;;;-145.69;49.23;51719.63;5093697;28;20580;-83
2023/07/15 02:17:25;;;;;;;3.60;1.80;;;;;;;-145.69;49.32;51691.91;5093536;28;20236;-84
2023/07/15 02:19:57;;;;;;;3.92;1.50;;;;;;;-145.69;49.57;51735.47;5094166;28;20200;-84
2023/07/15 02:22:24;;;;;;;2.38;1.63;;;;;;;-145.69;49.73;51703.78;5094067;28;20257;-83
2023/07/15 02:24:53;;;;;;;5.40;1.85;;;;;;;-145.69;49.49;51689.94;5093795;28;20257;-82
2023/07/15 02:27:22;;;;;;;3.50;1.60;;;;;;;-145.69;49.89;51701.81;5093748;28;20285;-84
2023/07/15 02:29:49;;;;;;;3.75;1.88;;;;;;;-145.69;49.66;51741.41;5094268;28;20202;-82
2023/07/15 02:32:36;;;;;;;5.35;1.40;;;;;;;-145.69;49.63;51751.31;5093406;28;20198;-81
2023/07/15 02:35:15;;;;;;;3.17;1.75;;;;;;;-145.69;50.70;51703.78;5092954;28;20197;-83
2023/07/15 02:37:43;;;;;;;3.15;1.90;;;;;;;-145.69;50.14;51735.47;5093711;28;20207;-83
2023/07/15 02:40:11;;;;;;;1.60;1.50;;;;;;;-145.69;50.00;51753.28;5093686;28;20228;-84
2023/07/15 02:42:40;;;;;;;4.10;2.03;;;;;;;-145.69;49.51;51703.78;5093793;28;20237;-84
2023/07/15 02:47:50;;;;;;;2.63;1.60;;;;;;;-145.69;50.26;51717.66;5093299;28;20205;-86
2023/07/15 02:50:19;;;;;;;3.70;1.58;;;;;;;-145.69;51.10;51725.56;5092838;28;20198;-84
2023/07/15 02:52:46;;;;;;;9.52;1.83;;;;;;;-145.69;50.20;51721.59;5093029;28;20298;-83
2023/07/15 02:55:14;;;;;;;4.90;1.60;;;;;;;-145.69;50.26;51721.59;5093310;28;20198;-82
2023/07/15 02:57:43;;;;;;;3.95;1.83;;;;;;;-145.69;50.24;51725.56;5093217;28;20213;-84
2023/07/15 03:00:14;;;;;;;4.30;1.70;;;;;;;-145.69;50.90;51719.63;5092979;28;20205;-82
2023/07/15 03:02:44;;;;;;;2.88;1.80;;;;;;;-145.69;50.48;51695.88;5093442;28;20231;-84
2023/07/15 03:05:12;;;;;;;3.22;1.70;;;;;;;-145.69;50.79;51707.75;5093225;28;20222;-82
2023/07/15 03:07:43;;;;;;;3.38;1.70;;;;;;;-145.69;50.33;51715.66;5091750;28;20557;-83
2023/07/15 03:10:12;;;;;;;2.92;1.80;;;;;;;-145.69;50.49;51735.47;5093169;28;20209;-83
2023/07/15 03:12:38;;;;;;;2.33;1.60;;;;;;;-145.69;50.37;51759.22;5092979;28;20692;-83
2023/07/15 03:15:07;;;;;;;2.58;1.58;;;;;;;-145.69;50.60;51711.72;5090674;28;20194;-82
2023/07/15 03:17:35;;;;;;;2.55;1.90;;;;;;;-145.69;50.49;51731.50;5073348;28;20264;-83
2023/07/15 03:20:19;;;;;;;3.10;1.83;;;;;;;-145.69;50.84;51711.72;5072768;28;20213;-83
2023/07/15 03:22:47;;;;;;;3.20;1.67;;;;;;;-145.69;51.23;51701.81;5072838;28;20233;-83
2023/07/15 03:25:14;;;;;;;2.28;1.45;;;;;;;-145.69;49.77;51737.44;5072783;28;20280;-84
2023/07/15 03:27:41;;;;;;;6.38;1.80;;;;;;;-145.69;48.81;51735.47;5072628;28;20199;-84
2023/07/15 03:30:09;;;;;;;2.97;1.58;;;;;;;-145.69;48.32;51723.59;5072815;28;20198;-82
2023/07/15 03:32:37;;;;;;;5.43;1.83;;;;;;;-145.69;48.34;51739.44;5072531;28;20202;-82
2023/07/15 03:35:08;;;;;;;3.95;1.98;;;;;;;-145.69;48.77;51729.53;5072738;28;20209;-83
2023/07/15 03:37:45;;;;;;;2.35;1.70;;;;;;;-145.69;48.57;51711.72;5092160;28;20205;-82
2023/07/15 03:40:18;;;;;;;3.03;1.77;;;;;;;-145.69;48.31;51713.69;5092761;28;20208;-82
2023/07/15 03:42:45;;;;;;;4.53;1.98;;;;;;;-145.69;48.62;51733.50;5093102;28;20190;-82
2023/07/15 03:45:11;;;;;;;4.47;1.98;;;;;;;-145.69;48.88;51759.22;5092533;28;20577;-83
2023/07/15 03:47:38;;;;;;;3.17;1.92;;;;;;;-145.69;49.00;51723.59;5096220;28;20213;-82
2023/07/15 03:50:09;;;;;;;2.42;1.77;;;;;;;-145.69;48.79;51741.41;5096803;28;20239;-83
2023/07/15 03:52:37;;;;;;;4.22;1.60;;;;;;;-145.69;49.30;51735.47;5097090;28;20233;-84
2023/07/15 03:55:05;;;;;;;3.38;2.05;;;;;;;-145.69;49.56;51731.50;5097138;28;20587;-82
2023/07/15 03:57:34;;;;;;;3.47;1.63;;;;;;;-145.69;49.60;51737.44;5097069;28;20200;-83
2023/07/15 04:00:00;;;;;;;4.85;2.10;;;;;;;-145.69;48.78;51711.72;5096249;28;20198;-83
2023/07/15 04:02:27;;;;;;;2.85;1.80;;;;;;;-145.69;48.95;51737.44;5096504;28;20197;-83
2023/07/15 04:04:53;;;;;;;4.32;1.92;;;;;;;-145.69;48.74;51735.47;5096321;28;20675;-81
2023/07/15 04:07:22;;;;;;;3.20;2.20;;;;;;;-145.69;49.14;51719.63;5096247;28;20203;-82
2023/07/15 04:09:49;;;;;;;3.78;2.03;;;;;;;-145.69;49.58;51745.38;5096394;28;20202;-84
2023/07/15 04:12:15;;;;;;;13.95;2.10;;;;;;;-145.69;49.25;51737.44;5096219;28;20241;-83
2023/07/15 04:14:43;;;;;;;7.13;1.73;;;;;;;-145.69;49.42;51705.75;5096082;28;20204;-82
2023/07/15 04:17:10;;;;;;;5.70;1.88;;;;;;;-145.69;48.97;51733.50;5096384;28;20210;-83
2023/07/15 04:19:38;;;;;;;5.03;1.90;;;;;;;-145.69;48.34;51715.66;5096382;28;20244;-82
2023/07/15 04:22:05;;;;;;;5.32;1.90;;;;;;;-145.69;48.12;51729.53;5096169;28;20205;-84
2023/07/15 04:24:31;;;;;;;3.03;1.85;;;;;;;-145.69;47.17;51723.59;5095713;28;20202;-82
2023/07/15 04:26:58;;;;;;;4.18;2.08;;;;;;;-145.69;47.20;51723.59;5095999;28;20222;-84
2023/07/15 04:29:24;;;;;;;2.47;1.73;;;;;;;-145.69;46.83;51693.88;5095920;28;20206;-85
2023/07/15 04:31:52;;;;;;;5.28;2.13;;;;;;;-145.69;46.36;51715.66;5095701;28;20282;-82
2023/07/15 04:34:21;;;;;;;4.10;1.83;;;;;;;-145.69;46.23;51719.63;5096000;28;20680;-83
2023/07/15 04:36:52;;;;;;;9.10;1.83;;;;;;;-145.69;46.22;51723.59;5095800;28;20206;-82
2023/07/15 04:39:19;;;;;;;2.88;1.85;;;;;;;-145.69;46.95;51703.78;5095786;28;20198;-82
2023/07/15 04:41:46;;;;;;;2.38;1.73;;;;;;;-145.69;46.95;51717.66;5095739;28;20629;-82
2023/07/15 04:44:14;;;;;;;2.45;1.65;;;;;;;-145.69;46.50;51715.66;5095449;28;20206;-83
2023/07/15 04:46:42;;;;;;;4.53;1.90;;;;;;;-145.69;46.28;51711.72;5095340;28;20248;-82
2023/07/15 04:49:10;;;;;;;3.80;1.83;;;;;;;-145.69;46.01;51735.47;5095461;28;20209;-82
2023/07/15 04:51:39;;;;;;;3.38;2.00;;;;;;;-145.69;46.46;51739.44;5095307;28;20205;-83
2023/07/15 04:54:06;;;;;;;5.75;1.90;;;;;;;-145.69;46.79;51743.38;5094574;28;20553;-82
2023/07/15 04:56:33;;;;;;;2.67;1.75;;;;;;;-145.69;46.90;51707.75;5095381;28;20206;-83
2023/07/15 04:59:00;;;;;;;3.15;1.77;;;;;;;-145.69;46.74;51680.03;5094706;28;20198;-82
2023/07/15 05:01:30;;;;;;;3.50;1.80;;;;;;;-145.69;46.61;51719.63;5095086;28;20209;-82
2023/07/15 05:03:56;;;;;;;4.20;1.92;;;;;;;-145.69;46.66;51715.66;5095240;28;20675;-82
2023/07/15 05:06:24;;;;;;;4.47;1.90;;;;;;;-145.69;46.43;51709.72;5095035;28;20263;-82
2023/07/15 05:09:00;;;;;;;3.20;1.70;;;;;;;-145.69;45.90;51719.63;5095283;28;20198;-82
2023/07/15 05:11:27;;;;;;;3.55;1.92;;;;;;;-145.69;45.38;51683.97;5095009;28;20234;-82
2023/07/15 05:13:53;;;;;;;2.35;1.60;;;;;;;-145.69;45.26;51703.78;5076911;28;20227;-84
2023/07/15 05:16:21;;;;;;;4.13;2.17;;;;;;;-145.69;45.15;51697.84;5092034;28;20289;-82
2023/07/15 05:18:50;;;;;;;6.30;1.90;;;;;;;-145.69;45.65;51687.94;5094791;28;20573;-82
2023/07/15 05:21:20;;;;;;;2.92;1.80;;;;;;;-145.69;45.79;51683.97;5095025;28;20198;-82
2023/07/15 05:23:48;;;;;;;4.70;2.38;;;;;;;-145.69;46.40;51715.66;5095150;28;20198;-82
2023/07/15 05:26:16;;;;;;;2.65;1.80;;;;;;;-145.69;46.10;51709.72;5094747;28;20222;-82
2023/07/15 05:28:43;;;;;;;3.08;2.10;;;;;;;-145.69;45.37;51713.69;5094957;28;20202;-82
2023/07/15 05:31:09;;;;;;;2.80;1.90;;;;;;;-145.69;45.12;51707.75;5094451;28;20549;-82
2023/07/15 05:33:36;;;;;;;3.17;2.00;;;;;;;-145.69;43.96;51683.97;5094670;28;20202;-82
2023/07/15 05:36:02;;;;;;;3.03;2.00;;;;;;;-145.69;43.29;51687.94;5095045;28;20209;-81
2023/07/15 05:38:41;;;;;;;4.78;1.83;;;;;;;-145.69;41.79;51693.88;5094501;28;20206;-83
2023/07/15 05:41:12;;;;;;;3.83;1.90;;;;;;;-145.69;41.39;51687.94;5094818;28;20280;-82
2023/07/15 05:43:39;;;;;;;4.13;2.35;;;;;;;-145.69;41.36;51668.16;5094674;28;20194;-83
2023/07/15 05:46:07;;;;;;;2.33;1.80;;;;;;;-145.69;40.72;51680.03;5094267;28;20788;-83
2023/07/15 05:48:36;;;;;;;4.32;1.88;;;;;;;-145.69;40.63;51648.34;5094705;28;20237;-83
2023/07/15 05:51:05;;;;;;;2.65;1.88;;;;;;;-145.69;40.52;51644.38;5094418;28;20665;-83
2023/07/15 05:53:32;;;;;;;2.88;2.03;;;;;;;-145.69;40.47;51678.03;5094614;28;20194;-83
2023/07/15 05:56:01;;;;;;;2.97;1.98;;;;;;;-145.69;39.93;51680.03;5094281;28;20206;-83
2023/07/15 05:58:38;;;;;;;2.83;1.80;;;;;;;-145.69;39.14;51648.34;5094405;28;20198;-83
2023/07/15 06:01:06;;;;;;;3.17;1.80;;;;;;;-145.69;39.69;51654.28;5094012;28;20203;-83
2023/07/15 06:03:33;;;;;;;2.13;1.70;;;;;;;-145.69;39.76;51664.19;5094601;28;20206;-81
2023/07/15 06:06:02;;;;;;;3.85;1.80;;;;;;;-145.69;39.34;51644.38;5094275;28;20226;-83
2023/07/15 06:08:37;;;;;;;8.05;1.83;;;;;;;-145.69;38.44;51630.53;5094130;28;20209;-81
2023/07/15 06:11:09;;;;;;;3.00;1.90;;;;;;;-145.69;38.70;51664.19;5093437;28;20202;-83
2023/07/15 06:13:35;;;;;;;2.40;1.75;;;;;;;-145.69;38.33;51666.16;5074130;28;20230;-83
2023/07/15 06:16:10;;;;;;;3.10;1.92;;;;;;;-145.69;38.42;51626.56;5082759;28;20581;-82
2023/07/15 06:18:39;;;;;;;6.18;2.17;;;;;;;-145.69;38.73;51648.34;5094008;28;20709;-82
2023/07/15 06:21:07;;;;;;;3.25;1.90;;;;;;;-145.69;38.05;51628.53;5094333;28;20202;-83
2023/07/15 06:23:43;;;;;;;3.08;1.95;;;;;;;-145.69;38.52;51608.75;5093520;28;20198;-82
2023/07/15 06:26:09;;;;;;;2.45;1.90;;;;;;;-145.69;38.93;51650.31;5093504;28;20232;-83
2023/07/15 06:28:36;;;;;;;5.18;1.95;;;;;;;-145.69;38.91;51636.47;5094008;28;20251;-84
2023/07/15 06:31:06;;;;;;;6.00;2.17;;;;;;;-145.69;37.90;51628.53;5094233;28;20202;-83
2023/07/15 06:33:33;;;;;;;2.75;1.60;;;;;;;-145.69;38.14;51628.53;5093815;28;20641;-83
2023/07/15 06:36:00;;;;;;;3.28;1.77;;;;;;;-145.69;38.78;51646.38;5094387;28;20201;-83
2023/07/15 06:38:27;;;;;;;5.72;1.80;;;;;;;-145.69;38.28;51646.38;5094184;28;20214;-83
2023/07/15 06:40:57;;;;;;;3.00;1.83;;;;;;;-145.69;38.33;51610.72;5093687;28;20295;-83
2023/07/15 06:43:32;;;;;;;4.43;2.30;;;;;;;-145.69;37.99;51596.88;5093696;28;20206;-83
2023/07/15 06:45:59;;;;;;;2.47;1.80;;;;;;;-145.69;37.97;51608.75;5093031;28;20217;-83
2023/07/15 06:48:29;;;;;;;2.78;1.60;;;;;;;-145.69;37.66;51606.75;5093099;28;20206;-83
2023/07/15 06:50:58;;;;;;;4.72;1.92;;;;;;;-145.69;36.76;51628.53;5093661;28;20205;-83
2023/07/15 06:53:25;;;;;;;3.10;1.90;;;;;;;-145.69;36.86;51608.75;5092525;28;20190;-81
2023/07/15 06:55:56;;;;;;;5.65;1.85;;;;;;;-145.69;37.05;51610.72;5093476;28;20240;-82
2023/07/15 06:58:23;;;;;;;2.92;1.80;;;;;;;-145.69;37.31;51584.97;5093588;28;20205;-82
2023/07/15 07:00:51;;;;;;;3.28;1.90;;;;;;;-145.69;37.73;51590.94;5093107;28;20669;-83
2023/07/15 07:03:17;;;;;;;3.15;1.90;;;;;;;-145.69;38.49;51610.72;5093447;28;20198;-82
2023/07/15 07:05:45;;;;;;;3.05;1.85;;;;;;;-145.69;37.31;51608.75;5085505;28;20198;-84
2023/07/15 07:08:12;;;;;;;3.30;1.80;;;;;;;-145.69;37.67;51602.81;5093247;28;20736;-82
2023/07/15 07:10:41;;;;;;;2.20;1.60;;;;;;;-145.69;36.81;51581.03;5093141;28;20202;-81
2023/07/15 07:13:07;;;;;;;4.50;1.65;;;;;;;-145.69;36.88;51608.75;5092891;28;20319;-82
2023/07/15 07:15:34;;;;;;;2.88;1.83;;;;;;;-145.69;36.84;51592.91;5092382;28;20202;-82
2023/07/15 07:18:00;;;;;;;2.45;1.77;;;;;;;-145.69;36.70;51618.66;5093358;28;20292;-84
2023/07/15 07:20:27;;;;;;;3.72;2.30;;;;;;;-145.69;37.50;51622.59;5092964;28;20225;-83
2023/07/15 07:22:55;;;;;;;3.92;1.85;;;;;;;-145.69;36.11;51579.03;5092980;28;20201;-82
2023/07/15 07:25:21;;;;;;;3.75;1.60;;;;;;;-145.69;36.83;51584.97;5092733;28;20198;-83
2023/07/15 07:27:48;;;;;;;2.92;1.70;;;;;;;-145.69;36.95;51590.94;5092569;28;20217;-81
2023/07/15 07:30:14;;;;;;;6.47;1.88;;;;;;;-145.69;36.93;51565.19;5092791;28;20202;-83
2023/07/15 07:32:41;;;;;;;9.68;2.05;;;;;;;-145.69;38.27;51598.84;5092378;28;20198;-85
2023/07/15 07:35:08;;;;;;;5.82;2.15;;;;;;;-145.69;37.72;51600.81;5092643;28;20194;-82
2023/07/15 07:37:34;;;;;;;2.33;1.77;;;;;;;-145.69;38.98;51600.81;5092853;28;20198;-82
2023/07/15 07:40:02;;;;;;;2.83;1.98;;;;;;;-145.69;37.20;51584.97;5092734;28;20205;-83
2023/07/15 07:42:29;;;;;;;3.22;2.17;;;;;;;-145.69;36.44;51577.06;5093403;28;20556;-83
2023/07/15 07:44:55;;;;;;;4.05;1.90;;;;;;;-145.69;37.61;51581.03;5092591;28;20206;-83
2023/07/15 07:47:22;;;;;;;2.70;1.92;;;;;;;-145.69;38.49;51588.94;5092891;28;20229;-83
2023/07/15 07:49:48;;;;;;;2.83;1.67;;;;;;;-145.69;36.57;51584.97;5092928;28;20205;-84
2023/07/15 07:52:15;;;;;;;3.42;1.50;;;;;;;-145.69;34.49;51565.19;5092863;28;20208;-84
2023/07/15 07:54:41;;;;;;;4.15;2.00;;;;;;;-145.69;35.50;51584.97;5093098;28;20205;-84
2023/07/15 07:57:10;;;;;;;3.92;1.98;;;;;;;-145.69;36.74;51563.22;5092022;28;20202;-83
2023/07/15 07:59:36;;;;;;;2.78;1.70;;;;;;;-145.69;35.99;51579.03;5087000;28;20255;-84
2023/07/15 08:02:03;;;;;;;4.80;2.10;;;;;;;-145.69;36.34;51567.16;5092714;28;20206;-84
2023/07/15 08:04:29;;;;;;;3.15;1.60;;;;;;;-145.69;34.54;51569.16;5092335;28;20232;-84
2023/07/15 08:06:56;;;;;;;5.25;2.00;;;;;;;-145.69;35.58;51547.38;5092618;28;20753;-83
2023/07/15 08:09:22;;;;;;;3.65;1.75;;;;;;;-145.69;35.01;51571.13;5092259;28;20206;-83
2023/07/15 08:11:49;;;;;;;3.05;1.52;;;;;;;-145.69;33.68;51557.25;5093037;28;20209;-82
2023/07/15 08:14:17;;;;;;;2.78;1.70;;;;;;;-145.69;34.75;51543.41;5092545;28;20233;-83
2023/07/15 08:16:44;;;;;;;3.67;1.85;;;;;;;-145.69;34.21;51586.97;5093300;28;20194;-85
2023/07/15 08:19:11;;;;;;;2.75;1.65;;;;;;;-145.69;34.26;51549.34;5092938;28;20234;-83
2023/07/15 08:21:37;;;;;;;2.95;1.70;;;;;;;-145.69;34.44;51588.94;5092407;28;20186;-84
2023/07/15 08:24:04;;;;;;;1.88;1.42;;;;;;;-145.69;34.68;51555.28;5092273;28;20206;-83
2023/07/15 08:26:31;;;;;;;6.97;2.00;;;;;;;-145.69;33.59;51537.47;5092233;28;20228;-84
2023/07/15 08:28:59;;;;;;;1.80;1.30;;;;;;;-145.69;32.74;51545.38;5092261;28;20281;-84
2023/07/15 08:31:27;;;;;;;2.63;1.70;;;;;;;-145.69;33.21;51545.38;5092448;28;20649;-83
2023/07/15 08:33:53;;;;;;;2.55;1.50;;;;;;;-145.69;33.88;51561.22;5094227;28;20208;-85
2023/07/15 08:36:20;;;;;;;4.25;1.92;;;;;;;-145.69;33.37;51533.50;5095935;28;20198;-84
2023/07/15 08:38:46;;;;;;;1.90;1.30;;;;;;;-145.69;32.81;51555.28;5095785;28;20198;-83
2023/07/15 08:41:13;;;;;;;2.78;1.65;;;;;;;-145.69;32.75;51533.50;5095978;28;20214;-84
2023/07/15 08:43:43;;;;;;;2.63;1.50;;;;;;;-145.69;32.79;51553.31;5095975;28;20201;-85
2023/07/15 08:46:18;;;;;;;3.78;1.85;;;;;;;-145.69;32.64;51525.59;5096620;28;20217;-86
2023/07/15 08:48:45;;;;;;;3.38;1.90;;;;;;;-145.69;31.75;51513.72;5096985;28;20204;-84
2023/07/15 08:51:13;;;;;;;2.20;1.50;;;;;;;-145.69;31.73;51513.72;5095620;28;20198;-85
2023/07/15 08:53:41;;;;;;;3.22;1.63;;;;;;;-145.69;31.92;51505.78;5096268;28;20280;-84
2023/07/15 08:56:09;;;;;;;3.05;1.48;;;;;;;-145.69;31.38;51497.88;5095617;28;20202;-86
2023/07/15 08:58:36;;;;;;;2.08;1.63;;;;;;;-145.69;31.68;51529.53;5095627;28;20194;-83
2023/07/15 09:01:06;;;;;;;4.78;1.60;;;;;;;-145.69;31.94;51486.00;5095861;28;20205;-84
2023/07/15 09:03:32;;;;;;;2.53;1.50;;;;;;;-145.69;31.72;51525.59;5095809;28;20201;-82
2023/07/15 09:06:01;;;;;;;5.47;1.88;;;;;;;-145.69;31.26;51511.72;5095691;28;20201;-82
2023/07/15 09:08:27;;;;;;;3.25;1.70;;;;;;;-145.69;30.40;51505.78;5094622;28;20222;-83
2023/07/15 09:10:54;;;;;;;1.83;1.35;;;;;;;-145.69;30.65;51509.75;5093813;28;20220;-81
2023/07/15 09:13:26;;;;;;;2.80;1.50;;;;;;;-145.69;30.45;51521.63;5076053;28;20593;-82
2023/07/15 09:15:53;;;;;;;3.22;1.92;;;;;;;-145.69;31.68;51505.78;5075073;28;20233;-83
2023/07/15 09:18:20;;;;;;;5.05;1.33;;;;;;;-145.69;31.65;51527.56;5074975;28;20687;-82
2023/07/15 09:20:47;;;;;;;2.42;1.50;;;;;;;-145.69;31.90;51499.84;5075065;28;20669;-84
2023/07/15 09:23:16;;;;;;;2.42;1.40;;;;;;;-145.69;31.46;51505.78;5092880;28;20270;-83
2023/07/15 09:25:50;;;;;;;3.63;1.70;;;;;;;-145.69;31.57;51517.66;5095867;28;20209;-83
2023/07/15 09:28:17;;;;;;;2.03;1.40;;;;;;;-145.69;31.50;51503.81;5094798;28;20245;-83
2023/07/15 09:30:43;;;;;;;3.28;1.52;;;;;;;-145.69;31.84;51521.63;5095331;28;20206;-82
2023/07/15 09:33:27;;;;;;;3.35;1.67;;;;;;;-145.69;31.27;51509.75;5095278;28;20201;-84
2023/07/15 09:35:54;;;;;;;3.47;1.77;;;;;;;-145.69;30.84;51513.72;5095206;28;20718;-83
2023/07/15 09:38:22;;;;;;;2.42;1.40;;;;;;;-145.69;31.22;51509.75;5094484;28;20195;-83
2023/07/15 09:40:49;;;;;;;2.72;1.73;;;;;;;-145.69;30.70;51499.84;5094501;28;20210;-84
2023/07/15 09:43:16;;;;;;;3.17;1.60;;;;;;;-145.69;31.07;51525.59;5095248;28;20241;-83
2023/07/15 09:45:42;;;;;;;2.53;1.63;;;;;;;-145.69;30.77;51495.88;5094482;28;20716;-82
2023/07/15 09:48:10;;;;;;;1.95;1.50;;;;;;;-145.69;30.82;51507.78;5094687;28;20240;-84
2023/07/15 09:50:38;;;;;;;3.67;1.20;;;;;;;-145.69;30.55;51495.88;5094617;28;20202;-83
2023/07/15 09:53:05;;;;;;;6.55;1.77;;;;;;;-145.69;31.15;51474.09;5094323;28;20190;-83
2023/07/15 09:55:36;;;;;;;3.80;1.45;;;;;;;-145.69;30.77;51476.09;5094437;28;20236;-83
2023/07/15 09:58:13;;;;;;;3.42;2.28;;;;;;;-145.69;29.10;51501.81;5094192;28;20531;-83
2023/07/15 10:00:43;;;;;;;1.70;1.58;;;;;;;-145.69;29.33;51501.81;5074383;28;20199;-85
2023/07/15 10:03:17;;;;;;;2.10;1.40;;;;;;;-145.69;28.84;51507.78;5077780;28;20197;-85
2023/07/15 10:05:45;;;;;;;2.80;1.48;;;;;;;-145.69;30.54;51489.94;5094196;28;20225;-86
2023/07/15 10:08:12;;;;;;;1.98;1.42;;;;;;;-145.69;30.34;51505.78;5094510;28;20680;-86
2023/07/15 10:10:41;;;;;;;4.85;1.58;;;;;;;-145.69;30.03;51509.75;5094584;28;20561;-85
2023/07/15 10:13:08;;;;;;;2.67;1.58;;;;;;;-145.69;31.31;51501.81;5094184;28;20245;-84
2023/07/15 10:15:35;;;;;;;3.30;1.42;;;;;;;-145.69;30.21;51480.06;5094288;28;20216;-84
2023/07/15 10:18:12;;;;;;;2.53;1.42;;;;;;;-145.69;31.99;51517.66;5094341;28;20199;-84
2023/07/15 10:20:42;;;;;;;2.38;1.60;;;;;;;-145.69;32.07;51515.69;5094598;28;20201;-83
2023/07/15 10:23:10;;;;;;;1.60;1.38;;;;;;;-145.69;31.71;51499.84;5094431;28;20204;-85
2023/07/15 10:25:45;;;;;;;2.33;1.40;;;;;;;-145.69;29.65;51499.84;5094432;28;20201;-85
2023/07/15 10:28:13;;;;;;;2.35;1.27;;;;;;;-145.69;29.72;51507.78;5093837;28;20274;-83
2023/07/15 10:30:40;;;;;;;3.33;1.52;;;;;;;-145.69;30.75;51497.88;5094219;28;20202;-86
2023/07/15 10:33:23;;;;;;;3.42;1.60;;;;;;;-145.69;30.78;51489.94;5094238;28;20198;-84
2023/07/15 10:35:55;;;;;;;2.85;1.70;;;;;;;-145.69;31.17;51515.69;5094285;28;20201;-82
2023/07/15 10:38:31;;;;;;;3.85;1.90;;;;;;;-145.69;31.22;51476.09;5094155;28;20270;-85
2023/07/15 10:41:02;;;;;;;3.72;1.70;;;;;;;-145.69;31.76;51462.22;5093962;28;20565;-87
2023/07/15 10:43:46;;;;;;;3.10;1.80;;;;;;;-145.69;30.51;51497.88;5093741;28;20194;-85
2023/07/15 10:46:18;;;;;;;2.35;1.60;;;;;;;-145.69;31.42;51507.78;5094356;28;20205;-85
2023/07/15 10:48:45;;;;;;;2.58;1.50;;;;;;;-145.69;31.05;51517.66;5093700;28;20226;-85
2023/07/15 10:51:12;;;;;;;1.65;1.35;;;;;;;-145.69;30.50;51497.88;5093782;28;20201;-85
2023/07/15 10:53:39;;;;;;;2.70;1.40;;;;;;;-145.69;29.92;51501.81;5088821;28;20195;-85
2023/07/15 10:56:10;;;;;;;3.30;1.50;;;;;;;-145.69;29.91;51486.00;5092610;28;20663;-85
2023/07/15 10:58:37;;;;;;;3.63;1.40;;;;;;;-145.69;30.29;51472.13;5093837;28;20201;-84
2023/07/15 11:01:11;;;;;;;2.65;1.50;;;;;;;-145.69;31.36;51470.16;5093755;28;20251;-86
2023/07/15 11:03:41;;;;;;;4.10;1.60;;;;;;;-145.69;29.80;51497.88;5092961;28;20518;-86
2023/07/15 11:06:08;;;;;;;1.58;1.10;;;;;;;-145.69;30.36;51486.00;5093321;28;20197;-85
2023/07/15 11:08:40;;;;;;;2.15;1.50;;;;;;;-145.69;30.77;51462.22;5093350;28;20232;-85
2023/07/15 11:11:24;;;;;;;1.92;1.63;;;;;;;-145.69;29.30;51470.16;5076815;28;20209;-85
2023/07/15 11:13:55;;;;;;;2.45;1.50;;;;;;;-145.69;29.66;51486.00;5072788;28;20236;-85
2023/07/15 11:16:23;;;;;;;3.25;1.38;;;;;;;-145.69;27.97;51466.19;5072613;28;20203;-84
2023/07/15 11:18:50;;;;;;;2.67;1.40;;;;;;;-145.69;27.72;51497.88;5072731;28;20218;-86
2023/07/15 11:21:16;;;;;;;2.35;1.20;;;;;;;-145.69;28.27;51466.19;5073401;28;20293;-84
2023/07/15 11:23:44;;;;;;;2.03;1.58;;;;;;;-145.69;28.32;51462.22;5093089;28;20299;-87
2023/07/15 11:26:12;;;;;;;2.80;1.50;;;;;;;-145.69;28.98;51438.47;5093559;28;20209;-85